sensor_id;sensor_type;location;lat;lon;timestamp;P1;durP1;ratioP1;P2;durP2;ratioP2
47764;SDS011;33529;49.242;8.670;2023-04-06T00:00:53;8.70;;;6.18;;
47764;SDS011;33529;49.242;8.670;2023-04-06T00:03:19;8.60;;;5.53;;
47764;SDS011;33529;49.242;8.670;2023-04-06T00:05:47;9.45;;;6.22;;
47764;SDS011;33529;49.242;8.670;2023-04-06T00:08:14;10.70;;;5.90;;
47764;SDS011;33529;49.242;8.670;2023-04-06T00:10:40;9.95;;;6.10;;
47764;SDS011;33529;49.242;8.670;2023-04-06T00:13:07;9.43;;;5.85;;
47764;SDS011;33529;49.242;8.670;2023-04-06T00:15:34;7.63;;;5.28;;
47764;SDS011;33529;49.242;8.670;2023-04-06T00:18:02;8.15;;;5.45;;
47764;SDS011;33529;49.242;8.670;2023-04-06T00:20:29;9.60;;;5.57;;
47764;SDS011;33529;49.242;8.670;2023-04-06T00:22:56;10.10;;;5.80;;
47764;SDS011;33529;49.242;8.670;2023-04-06T00:25:23;9.85;;;5.45;;
47764;SDS011;33529;49.242;8.670;2023-04-06T00:27:49;9.40;;;5.30;;
47764;SDS011;33529;49.242;8.670;2023-04-06T00:30:16;8.27;;;5.53;;
47764;SDS011;33529;49.242;8.670;2023-04-06T00:32:43;8.43;;;5.55;;
47764;SDS011;33529;49.242;8.670;2023-04-06T00:35:10;6.53;;;4.80;;
47764;SDS011;33529;49.242;8.670;2023-04-06T00:37:37;9.50;;;5.72;;
47764;SDS011;33529;49.242;8.670;2023-04-06T00:40:04;7.35;;;5.05;;
47764;SDS011;33529;49.242;8.670;2023-04-06T00:42:31;8.05;;;5.43;;
47764;SDS011;33529;49.242;8.670;2023-04-06T00:44:59;7.05;;;5.32;;
47764;SDS011;33529;49.242;8.670;2023-04-06T00:47:26;7.30;;;4.97;;
47764;SDS011;33529;49.242;8.670;2023-04-06T00:49:54;7.10;;;5.63;;
47764;SDS011;33529;49.242;8.670;2023-04-06T00:52:21;7.18;;;5.07;;
47764;SDS011;33529;49.242;8.670;2023-04-06T00:54:49;9.35;;;5.85;;
47764;SDS011;33529;49.242;8.670;2023-04-06T00:57:19;9.82;;;6.30;;
47764;SDS011;33529;49.242;8.670;2023-04-06T00:59:54;7.05;;;5.05;;
47764;SDS011;33529;49.242;8.670;2023-04-06T01:02:21;7.90;;;5.47;;
47764;SDS011;33529;49.242;8.670;2023-04-06T01:04:51;9.85;;;6.10;;
47764;SDS011;33529;49.242;8.670;2023-04-06T01:07:28;8.02;;;5.50;;
47764;SDS011;33529;49.242;8.670;2023-04-06T01:10:27;7.60;;;5.07;;
47764;SDS011;33529;49.242;8.670;2023-04-06T01:13:01;7.63;;;5.45;;
47764;SDS011;33529;49.242;8.670;2023-04-06T01:15:51;8.63;;;5.65;;
47764;SDS011;33529;49.242;8.670;2023-04-06T01:18:28;7.60;;;4.90;;
47764;SDS011;33529;49.242;8.670;2023-04-06T01:21:09;9.77;;;5.93;;
47764;SDS011;33529;49.242;8.670;2023-04-06T01:23:52;7.68;;;5.50;;
47764;SDS011;33529;49.242;8.670;2023-04-06T01:26:26;8.88;;;5.75;;
47764;SDS011;33529;49.242;8.670;2023-04-06T01:28:53;8.48;;;5.95;;
47764;SDS011;33529;49.242;8.670;2023-04-06T01:31:26;8.77;;;6.32;;
47764;SDS011;33529;49.242;8.670;2023-04-06T01:33:53;8.73;;;5.15;;
47764;SDS011;33529;49.242;8.670;2023-04-06T01:36:22;7.63;;;5.15;;
47764;SDS011;33529;49.242;8.670;2023-04-06T01:38:58;8.18;;;5.60;;
47764;SDS011;33529;49.242;8.670;2023-04-06T01:41:32;7.82;;;5.03;;
47764;SDS011;33529;49.242;8.670;2023-04-06T01:43:59;7.78;;;5.07;;
47764;SDS011;33529;49.242;8.670;2023-04-06T01:46:28;7.82;;;5.95;;
47764;SDS011;33529;49.242;8.670;2023-04-06T01:48:55;6.93;;;5.00;;
47764;SDS011;33529;49.242;8.670;2023-04-06T01:51:35;6.55;;;4.65;;
47764;SDS011;33529;49.242;8.670;2023-04-06T01:54:05;7.35;;;4.75;;
47764;SDS011;33529;49.242;8.670;2023-04-06T01:56:45;6.72;;;5.18;;
47764;SDS011;33529;49.242;8.670;2023-04-06T01:59:47;7.30;;;5.25;;
47764;SDS011;33529;49.242;8.670;2023-04-06T02:02:25;8.00;;;5.60;;
47764;SDS011;33529;49.242;8.670;2023-04-06T02:04:58;8.13;;;5.35;;
47764;SDS011;33529;49.242;8.670;2023-04-06T02:07:26;8.15;;;5.72;;
47764;SDS011;33529;49.242;8.670;2023-04-06T02:09:54;9.18;;;6.00;;
47764;SDS011;33529;49.242;8.670;2023-04-06T02:12:30;8.23;;;5.63;;
47764;SDS011;33529;49.242;8.670;2023-04-06T02:14:57;7.93;;;5.28;;
47764;SDS011;33529;49.242;8.670;2023-04-06T02:17:24;8.20;;;5.55;;
47764;SDS011;33529;49.242;8.670;2023-04-06T02:19:51;7.28;;;5.15;;
47764;SDS011;33529;49.242;8.670;2023-04-06T02:22:17;9.40;;;5.22;;
47764;SDS011;33529;49.242;8.670;2023-04-06T02:24:44;8.45;;;5.45;;
47764;SDS011;33529;49.242;8.670;2023-04-06T02:27:13;7.95;;;5.40;;
47764;SDS011;33529;49.242;8.670;2023-04-06T02:29:44;7.30;;;5.47;;
47764;SDS011;33529;49.242;8.670;2023-04-06T02:32:13;9.18;;;6.15;;
47764;SDS011;33529;49.242;8.670;2023-04-06T02:34:39;7.45;;;5.65;;
47764;SDS011;33529;49.242;8.670;2023-04-06T02:37:06;10.73;;;5.50;;
47764;SDS011;33529;49.242;8.670;2023-04-06T02:39:33;8.60;;;6.30;;
47764;SDS011;33529;49.242;8.670;2023-04-06T02:42:02;8.57;;;5.60;;
47764;SDS011;33529;49.242;8.670;2023-04-06T02:44:29;10.20;;;5.05;;
47764;SDS011;33529;49.242;8.670;2023-04-06T02:46:55;7.45;;;5.50;;
47764;SDS011;33529;49.242;8.670;2023-04-06T02:49:24;8.40;;;6.05;;
47764;SDS011;33529;49.242;8.670;2023-04-06T02:51:54;10.15;;;6.63;;
47764;SDS011;33529;49.242;8.670;2023-04-06T02:54:25;7.72;;;5.45;;
47764;SDS011;33529;49.242;8.670;2023-04-06T02:56:52;7.20;;;5.15;;
47764;SDS011;33529;49.242;8.670;2023-04-06T02:59:20;6.78;;;5.38;;
47764;SDS011;33529;49.242;8.670;2023-04-06T03:01:58;9.30;;;6.10;;
47764;SDS011;33529;49.242;8.670;2023-04-06T03:04:25;8.98;;;6.22;;
47764;SDS011;33529;49.242;8.670;2023-04-06T03:06:54;9.95;;;5.95;;
47764;SDS011;33529;49.242;8.670;2023-04-06T03:09:32;8.18;;;5.93;;
47764;SDS011;33529;49.242;8.670;2023-04-06T03:12:00;9.50;;;6.75;;
47764;SDS011;33529;49.242;8.670;2023-04-06T03:14:30;8.33;;;6.00;;
47764;SDS011;33529;49.242;8.670;2023-04-06T03:16:57;7.90;;;5.97;;
47764;SDS011;33529;49.242;8.670;2023-04-06T03:19:24;9.35;;;6.00;;
47764;SDS011;33529;49.242;8.670;2023-04-06T03:21:53;10.90;;;7.00;;
47764;SDS011;33529;49.242;8.670;2023-04-06T03:24:21;9.10;;;5.68;;
47764;SDS011;33529;49.242;8.670;2023-04-06T03:26:48;10.18;;;6.45;;
47764;SDS011;33529;49.242;8.670;2023-04-06T03:29:15;10.02;;;6.38;;
47764;SDS011;33529;49.242;8.670;2023-04-06T03:31:42;8.23;;;6.45;;
47764;SDS011;33529;49.242;8.670;2023-04-06T03:34:27;11.07;;;6.97;;
47764;SDS011;33529;49.242;8.670;2023-04-06T03:36:54;8.82;;;6.50;;
47764;SDS011;33529;49.242;8.670;2023-04-06T03:39:35;10.57;;;5.80;;
47764;SDS011;33529;49.242;8.670;2023-04-06T03:42:02;8.82;;;6.28;;
47764;SDS011;33529;49.242;8.670;2023-04-06T03:44:34;8.55;;;6.55;;
47764;SDS011;33529;49.242;8.670;2023-04-06T03:47:02;9.25;;;6.53;;
47764;SDS011;33529;49.242;8.670;2023-04-06T03:49:29;9.40;;;7.03;;
47764;SDS011;33529;49.242;8.670;2023-04-06T03:51:57;10.25;;;6.43;;
47764;SDS011;33529;49.242;8.670;2023-04-06T03:54:24;10.38;;;7.28;;
47764;SDS011;33529;49.242;8.670;2023-04-06T03:56:51;11.13;;;6.90;;
47764;SDS011;33529;49.242;8.670;2023-04-06T03:59:18;9.15;;;6.38;;
47764;SDS011;33529;49.242;8.670;2023-04-06T04:01:45;10.18;;;7.07;;
47764;SDS011;33529;49.242;8.670;2023-04-06T04:04:11;10.25;;;7.15;;
47764;SDS011;33529;49.242;8.670;2023-04-06T04:06:38;8.45;;;6.88;;
47764;SDS011;33529;49.242;8.670;2023-04-06T04:09:06;10.05;;;6.85;;
47764;SDS011;33529;49.242;8.670;2023-04-06T04:11:33;9.23;;;5.78;;
47764;SDS011;33529;49.242;8.670;2023-04-06T04:14:00;9.25;;;6.78;;
47764;SDS011;33529;49.242;8.670;2023-04-06T04:16:27;12.15;;;7.57;;
47764;SDS011;33529;49.242;8.670;2023-04-06T04:18:55;9.68;;;6.60;;
47764;SDS011;33529;49.242;8.670;2023-04-06T04:21:24;8.70;;;6.60;;
47764;SDS011;33529;49.242;8.670;2023-04-06T04:23:52;8.90;;;6.40;;
47764;SDS011;33529;49.242;8.670;2023-04-06T04:26:18;8.63;;;6.85;;
47764;SDS011;33529;49.242;8.670;2023-04-06T04:28:46;7.90;;;6.43;;
47764;SDS011;33529;49.242;8.670;2023-04-06T04:31:13;11.30;;;7.78;;
47764;SDS011;33529;49.242;8.670;2023-04-06T04:33:40;10.40;;;7.07;;
47764;SDS011;33529;49.242;8.670;2023-04-06T04:36:12;11.10;;;7.40;;
47764;SDS011;33529;49.242;8.670;2023-04-06T04:38:41;8.80;;;6.50;;
47764;SDS011;33529;49.242;8.670;2023-04-06T04:41:09;11.05;;;7.15;;
47764;SDS011;33529;49.242;8.670;2023-04-06T04:43:39;10.77;;;7.72;;
47764;SDS011;33529;49.242;8.670;2023-04-06T04:46:06;9.75;;;6.43;;
47764;SDS011;33529;49.242;8.670;2023-04-06T04:48:37;10.43;;;7.20;;
47764;SDS011;33529;49.242;8.670;2023-04-06T04:51:06;9.85;;;6.78;;
47764;SDS011;33529;49.242;8.670;2023-04-06T04:53:49;9.45;;;6.78;;
47764;SDS011;33529;49.242;8.670;2023-04-06T04:58:52;11.60;;;8.02;;
47764;SDS011;33529;49.242;8.670;2023-04-06T05:01:20;9.75;;;7.32;;
47764;SDS011;33529;49.242;8.670;2023-04-06T05:03:47;9.50;;;7.45;;
47764;SDS011;33529;49.242;8.670;2023-04-06T05:06:16;11.85;;;7.60;;
47764;SDS011;33529;49.242;8.670;2023-04-06T05:08:43;10.75;;;7.25;;
47764;SDS011;33529;49.242;8.670;2023-04-06T05:11:10;9.93;;;7.68;;
47764;SDS011;33529;49.242;8.670;2023-04-06T05:13:43;14.57;;;10.40;;
47764;SDS011;33529;49.242;8.670;2023-04-06T05:16:15;15.27;;;10.65;;
47764;SDS011;33529;49.242;8.670;2023-04-06T05:18:43;13.75;;;9.05;;
47764;SDS011;33529;49.242;8.670;2023-04-06T05:21:10;11.77;;;7.97;;
47764;SDS011;33529;49.242;8.670;2023-04-06T05:23:49;10.65;;;7.25;;
47764;SDS011;33529;49.242;8.670;2023-04-06T05:26:16;11.35;;;7.32;;
47764;SDS011;33529;49.242;8.670;2023-04-06T05:28:44;10.32;;;7.32;;
47764;SDS011;33529;49.242;8.670;2023-04-06T05:31:12;11.68;;;7.35;;
47764;SDS011;33529;49.242;8.670;2023-04-06T05:33:45;10.98;;;6.97;;
47764;SDS011;33529;49.242;8.670;2023-04-06T05:36:16;11.18;;;7.30;;
47764;SDS011;33529;49.242;8.670;2023-04-06T05:38:45;12.10;;;7.55;;
47764;SDS011;33529;49.242;8.670;2023-04-06T05:41:28;10.73;;;6.85;;
47764;SDS011;33529;49.242;8.670;2023-04-06T05:43:54;10.93;;;6.97;;
47764;SDS011;33529;49.242;8.670;2023-04-06T05:46:22;10.80;;;7.03;;
47764;SDS011;33529;49.242;8.670;2023-04-06T05:48:52;12.35;;;7.35;;
47764;SDS011;33529;49.242;8.670;2023-04-06T05:51:23;12.02;;;8.45;;
47764;SDS011;33529;49.242;8.670;2023-04-06T05:53:50;11.13;;;6.75;;
47764;SDS011;33529;49.242;8.670;2023-04-06T05:56:17;10.13;;;7.30;;
47764;SDS011;33529;49.242;8.670;2023-04-06T05:58:44;9.77;;;7.00;;
47764;SDS011;33529;49.242;8.670;2023-04-06T06:01:14;9.48;;;7.30;;
47764;SDS011;33529;49.242;8.670;2023-04-06T06:03:45;10.50;;;6.53;;
47764;SDS011;33529;49.242;8.670;2023-04-06T06:06:12;9.55;;;7.38;;
47764;SDS011;33529;49.242;8.670;2023-04-06T06:08:55;10.85;;;7.00;;
47764;SDS011;33529;49.242;8.670;2023-04-06T06:11:28;12.00;;;7.70;;
47764;SDS011;33529;49.242;8.670;2023-04-06T06:13:55;9.98;;;6.30;;
47764;SDS011;33529;49.242;8.670;2023-04-06T06:16:23;11.32;;;7.63;;
47764;SDS011;33529;49.242;8.670;2023-04-06T06:18:50;10.98;;;7.32;;
47764;SDS011;33529;49.242;8.670;2023-04-06T06:21:17;11.20;;;7.60;;
47764;SDS011;33529;49.242;8.670;2023-04-06T06:23:44;10.57;;;7.28;;
47764;SDS011;33529;49.242;8.670;2023-04-06T06:26:16;14.10;;;8.48;;
47764;SDS011;33529;49.242;8.670;2023-04-06T06:28:43;11.55;;;7.28;;
47764;SDS011;33529;49.242;8.670;2023-04-06T06:31:12;10.65;;;8.50;;
47764;SDS011;33529;49.242;8.670;2023-04-06T06:33:39;10.38;;;7.05;;
47764;SDS011;33529;49.242;8.670;2023-04-06T06:36:07;11.93;;;7.30;;
47764;SDS011;33529;49.242;8.670;2023-04-06T06:38:34;10.23;;;6.65;;
47764;SDS011;33529;49.242;8.670;2023-04-06T06:41:00;9.98;;;7.10;;
47764;SDS011;33529;49.242;8.670;2023-04-06T06:43:33;9.68;;;6.85;;
47764;SDS011;33529;49.242;8.670;2023-04-06T06:46:05;10.73;;;7.10;;
47764;SDS011;33529;49.242;8.670;2023-04-06T06:48:32;10.00;;;6.82;;
47764;SDS011;33529;49.242;8.670;2023-04-06T06:50:59;10.00;;;7.15;;
47764;SDS011;33529;49.242;8.670;2023-04-06T06:53:26;9.85;;;6.82;;
47764;SDS011;33529;49.242;8.670;2023-04-06T06:55:55;9.05;;;6.93;;
47764;SDS011;33529;49.242;8.670;2023-04-06T07:03:19;7.95;;;6.45;;
47764;SDS011;33529;49.242;8.670;2023-04-06T07:05:48;8.07;;;5.95;;
47764;SDS011;33529;49.242;8.670;2023-04-06T07:08:20;10.50;;;7.00;;
47764;SDS011;33529;49.242;8.670;2023-04-06T07:10:50;10.35;;;6.90;;
47764;SDS011;33529;49.242;8.670;2023-04-06T07:13:19;53.17;;;30.53;;
47764;SDS011;33529;49.242;8.670;2023-04-06T07:15:54;21.73;;;16.33;;
47764;SDS011;33529;49.242;8.670;2023-04-06T07:18:21;13.88;;;9.35;;
47764;SDS011;33529;49.242;8.670;2023-04-06T07:20:48;12.40;;;8.10;;
47764;SDS011;33529;49.242;8.670;2023-04-06T07:23:16;10.68;;;8.07;;
47764;SDS011;33529;49.242;8.670;2023-04-06T07:25:43;10.40;;;6.60;;
47764;SDS011;33529;49.242;8.670;2023-04-06T07:28:10;9.30;;;6.80;;
47764;SDS011;33529;49.242;8.670;2023-04-06T07:30:38;10.23;;;7.78;;
47764;SDS011;33529;49.242;8.670;2023-04-06T07:33:06;10.00;;;6.70;;
47764;SDS011;33529;49.242;8.670;2023-04-06T07:35:34;9.35;;;5.72;;
47764;SDS011;33529;49.242;8.670;2023-04-06T07:38:03;8.90;;;7.00;;
47764;SDS011;33529;49.242;8.670;2023-04-06T07:40:34;9.75;;;6.88;;
47764;SDS011;33529;49.242;8.670;2023-04-06T07:43:01;7.70;;;6.20;;
47764;SDS011;33529;49.242;8.670;2023-04-06T07:45:28;8.60;;;7.07;;
47764;SDS011;33529;49.242;8.670;2023-04-06T07:47:56;7.72;;;5.53;;
47764;SDS011;33529;49.242;8.670;2023-04-06T07:50:24;6.72;;;4.65;;
47764;SDS011;33529;49.242;8.670;2023-04-06T07:52:52;7.53;;;5.60;;
47764;SDS011;33529;49.242;8.670;2023-04-06T07:55:19;6.65;;;4.40;;
47764;SDS011;33529;49.242;8.670;2023-04-06T07:57:46;8.38;;;4.63;;
47764;SDS011;33529;49.242;8.670;2023-04-06T08:00:13;7.78;;;4.57;;
47764;SDS011;33529;49.242;8.670;2023-04-06T08:02:40;7.10;;;4.35;;
47764;SDS011;33529;49.242;8.670;2023-04-06T08:05:07;7.10;;;5.13;;
47764;SDS011;33529;49.242;8.670;2023-04-06T08:07:34;5.95;;;4.13;;
47764;SDS011;33529;49.242;8.670;2023-04-06T08:10:02;5.75;;;3.90;;
47764;SDS011;33529;49.242;8.670;2023-04-06T08:12:29;6.22;;;4.00;;
47764;SDS011;33529;49.242;8.670;2023-04-06T08:14:56;5.72;;;4.20;;
47764;SDS011;33529;49.242;8.670;2023-04-06T08:17:23;5.03;;;3.92;;
47764;SDS011;33529;49.242;8.670;2023-04-06T08:19:49;6.50;;;4.75;;
47764;SDS011;33529;49.242;8.670;2023-04-06T08:22:16;8.45;;;5.18;;
47764;SDS011;33529;49.242;8.670;2023-04-06T08:24:43;8.57;;;4.93;;
47764;SDS011;33529;49.242;8.670;2023-04-06T08:27:10;6.63;;;4.13;;
47764;SDS011;33529;49.242;8.670;2023-04-06T08:29:37;6.82;;;4.13;;
47764;SDS011;33529;49.242;8.670;2023-04-06T08:32:03;6.20;;;4.05;;
47764;SDS011;33529;49.242;8.670;2023-04-06T08:34:32;6.47;;;4.05;;
47764;SDS011;33529;49.242;8.670;2023-04-06T08:36:59;6.90;;;3.85;;
47764;SDS011;33529;49.242;8.670;2023-04-06T08:39:27;6.72;;;4.25;;
47764;SDS011;33529;49.242;8.670;2023-04-06T08:41:54;5.78;;;4.60;;
47764;SDS011;33529;49.242;8.670;2023-04-06T08:44:23;6.63;;;4.57;;
47764;SDS011;33529;49.242;8.670;2023-04-06T08:46:51;5.57;;;3.80;;
47764;SDS011;33529;49.242;8.670;2023-04-06T08:49:19;6.75;;;3.60;;
47764;SDS011;33529;49.242;8.670;2023-04-06T08:51:46;5.68;;;3.58;;
47764;SDS011;33529;49.242;8.670;2023-04-06T08:54:14;5.40;;;3.95;;
47764;SDS011;33529;49.242;8.670;2023-04-06T08:56:41;8.20;;;4.20;;
47764;SDS011;33529;49.242;8.670;2023-04-06T08:59:09;6.60;;;3.80;;
47764;SDS011;33529;49.242;8.670;2023-04-06T09:01:38;6.28;;;3.97;;
47764;SDS011;33529;49.242;8.670;2023-04-06T09:04:08;6.10;;;4.03;;
47764;SDS011;33529;49.242;8.670;2023-04-06T09:06:38;5.22;;;3.90;;
47764;SDS011;33529;49.242;8.670;2023-04-06T09:09:06;7.75;;;4.20;;
47764;SDS011;33529;49.242;8.670;2023-04-06T09:11:55;6.85;;;4.30;;
47764;SDS011;33529;49.242;8.670;2023-04-06T09:14:33;5.93;;;4.13;;
47764;SDS011;33529;49.242;8.670;2023-04-06T09:17:02;7.20;;;4.20;;
47764;SDS011;33529;49.242;8.670;2023-04-06T09:19:29;6.28;;;4.22;;
47764;SDS011;33529;49.242;8.670;2023-04-06T09:22:05;6.93;;;4.05;;
47764;SDS011;33529;49.242;8.670;2023-04-06T09:24:42;7.07;;;4.38;;
47764;SDS011;33529;49.242;8.670;2023-04-06T09:27:16;5.78;;;4.30;;
47764;SDS011;33529;49.242;8.670;2023-04-06T09:29:44;7.60;;;4.75;;
47764;SDS011;33529;49.242;8.670;2023-04-06T09:32:11;6.85;;;4.78;;
47764;SDS011;33529;49.242;8.670;2023-04-06T09:34:41;7.07;;;4.38;;
47764;SDS011;33529;49.242;8.670;2023-04-06T09:37:17;5.57;;;4.22;;
47764;SDS011;33529;49.242;8.670;2023-04-06T09:39:45;5.88;;;3.92;;
47764;SDS011;33529;49.242;8.670;2023-04-06T09:42:23;6.22;;;3.85;;
47764;SDS011;33529;49.242;8.670;2023-04-06T09:44:51;6.82;;;4.85;;
47764;SDS011;33529;49.242;8.670;2023-04-06T09:47:18;8.18;;;5.35;;
47764;SDS011;33529;49.242;8.670;2023-04-06T09:50:07;6.82;;;4.32;;
47764;SDS011;33529;49.242;8.670;2023-04-06T09:57:03;7.30;;;5.18;;
47764;SDS011;33529;49.242;8.670;2023-04-06T09:59:56;6.22;;;3.85;;
47764;SDS011;33529;49.242;8.670;2023-04-06T10:02:53;7.57;;;4.43;;
47764;SDS011;33529;49.242;8.670;2023-04-06T10:08:24;8.38;;;5.03;;
47764;SDS011;33529;49.242;8.670;2023-04-06T10:10:57;7.05;;;4.43;;
47764;SDS011;33529;49.242;8.670;2023-04-06T10:13:26;8.88;;;4.47;;
47764;SDS011;33529;49.242;8.670;2023-04-06T10:15:54;8.20;;;4.35;;
47764;SDS011;33529;49.242;8.670;2023-04-06T10:18:21;6.55;;;3.92;;
47764;SDS011;33529;49.242;8.670;2023-04-06T10:20:56;8.20;;;5.38;;
47764;SDS011;33529;49.242;8.670;2023-04-06T10:23:34;8.77;;;4.15;;
47764;SDS011;33529;49.242;8.670;2023-04-06T10:26:04;6.57;;;4.50;;
47764;SDS011;33529;49.242;8.670;2023-04-06T10:28:32;6.30;;;4.20;;
47764;SDS011;33529;49.242;8.670;2023-04-06T10:31:05;5.25;;;3.85;;
47764;SDS011;33529;49.242;8.670;2023-04-06T10:33:32;6.38;;;3.70;;
47764;SDS011;33529;49.242;8.670;2023-04-06T10:38:39;5.70;;;3.75;;
47764;SDS011;33529;49.242;8.670;2023-04-06T10:41:08;6.03;;;4.00;;
47764;SDS011;33529;49.242;8.670;2023-04-06T10:43:37;6.05;;;3.67;;
47764;SDS011;33529;49.242;8.670;2023-04-06T10:46:06;4.97;;;3.22;;
47764;SDS011;33529;49.242;8.670;2023-04-06T10:48:42;6.22;;;3.75;;
47764;SDS011;33529;49.242;8.670;2023-04-06T10:51:16;5.10;;;3.85;;
47764;SDS011;33529;49.242;8.670;2023-04-06T10:53:45;6.13;;;3.70;;
47764;SDS011;33529;49.242;8.670;2023-04-06T10:56:16;5.97;;;4.18;;
47764;SDS011;33529;49.242;8.670;2023-04-06T10:58:50;4.47;;;3.35;;
47764;SDS011;33529;49.242;8.670;2023-04-06T11:01:19;5.22;;;3.40;;
47764;SDS011;33529;49.242;8.670;2023-04-06T11:03:53;6.00;;;3.40;;
47764;SDS011;33529;49.242;8.670;2023-04-06T11:06:22;5.45;;;3.33;;
47764;SDS011;33529;49.242;8.670;2023-04-06T11:08:50;6.30;;;3.50;;
47764;SDS011;33529;49.242;8.670;2023-04-06T11:11:20;6.80;;;3.70;;
47764;SDS011;33529;49.242;8.670;2023-04-06T11:13:49;5.80;;;3.53;;
47764;SDS011;33529;49.242;8.670;2023-04-06T11:16:30;7.25;;;3.92;;
47764;SDS011;33529;49.242;8.670;2023-04-06T11:18:59;5.57;;;3.75;;
47764;SDS011;33529;49.242;8.670;2023-04-06T11:21:46;5.95;;;3.60;;
47764;SDS011;33529;49.242;8.670;2023-04-06T11:24:21;7.03;;;4.00;;
47764;SDS011;33529;49.242;8.670;2023-04-06T11:26:53;6.45;;;4.03;;
47764;SDS011;33529;49.242;8.670;2023-04-06T11:29:28;6.97;;;4.03;;
47764;SDS011;33529;49.242;8.670;2023-04-06T11:32:02;6.13;;;3.40;;
47764;SDS011;33529;49.242;8.670;2023-04-06T11:34:35;7.00;;;3.72;;
47764;SDS011;33529;49.242;8.670;2023-04-06T11:37:09;6.50;;;3.95;;
47764;SDS011;33529;49.242;8.670;2023-04-06T11:39:38;6.65;;;4.35;;
47764;SDS011;33529;49.242;8.670;2023-04-06T11:42:21;6.28;;;3.92;;
47764;SDS011;33529;49.242;8.670;2023-04-06T11:44:53;7.95;;;3.95;;
47764;SDS011;33529;49.242;8.670;2023-04-06T11:47:27;6.47;;;3.53;;
47764;SDS011;33529;49.242;8.670;2023-04-06T11:49:55;6.13;;;4.00;;
47764;SDS011;33529;49.242;8.670;2023-04-06T11:52:26;6.70;;;3.60;;
47764;SDS011;33529;49.242;8.670;2023-04-06T11:54:54;7.32;;;3.75;;
47764;SDS011;33529;49.242;8.670;2023-04-06T11:57:23;5.78;;;4.07;;
47764;SDS011;33529;49.242;8.670;2023-04-06T11:59:56;6.47;;;3.95;;
47764;SDS011;33529;49.242;8.670;2023-04-06T12:02:23;6.47;;;3.67;;
47764;SDS011;33529;49.242;8.670;2023-04-06T12:04:51;7.15;;;3.95;;
47764;SDS011;33529;49.242;8.670;2023-04-06T12:07:18;7.22;;;3.50;;
47764;SDS011;33529;49.242;8.670;2023-04-06T12:09:45;6.45;;;3.85;;
47764;SDS011;33529;49.242;8.670;2023-04-06T12:12:11;6.60;;;3.63;;
47764;SDS011;33529;49.242;8.670;2023-04-06T12:14:38;6.65;;;3.97;;
47764;SDS011;33529;49.242;8.670;2023-04-06T12:17:05;5.25;;;3.45;;
47764;SDS011;33529;49.242;8.670;2023-04-06T12:19:32;6.93;;;3.55;;
47764;SDS011;33529;49.242;8.670;2023-04-06T12:22:01;5.22;;;2.92;;
47764;SDS011;33529;49.242;8.670;2023-04-06T12:24:28;6.80;;;3.42;;
47764;SDS011;33529;49.242;8.670;2023-04-06T12:26:57;5.15;;;3.10;;
47764;SDS011;33529;49.242;8.670;2023-04-06T12:29:34;4.93;;;3.13;;
47764;SDS011;33529;49.242;8.670;2023-04-06T12:32:01;4.93;;;3.60;;
47764;SDS011;33529;49.242;8.670;2023-04-06T12:34:28;6.72;;;3.08;;
47764;SDS011;33529;49.242;8.670;2023-04-06T12:36:55;4.65;;;3.20;;
47764;SDS011;33529;49.242;8.670;2023-04-06T12:39:22;5.55;;;3.13;;
47764;SDS011;33529;49.242;8.670;2023-04-06T12:41:49;4.82;;;2.75;;
47764;SDS011;33529;49.242;8.670;2023-04-06T12:44:16;4.28;;;2.45;;
47764;SDS011;33529;49.242;8.670;2023-04-06T12:46:43;5.88;;;3.60;;
47764;SDS011;33529;49.242;8.670;2023-04-06T12:49:11;4.82;;;2.95;;
47764;SDS011;33529;49.242;8.670;2023-04-06T12:51:38;5.40;;;3.20;;
47764;SDS011;33529;49.242;8.670;2023-04-06T12:54:04;5.63;;;3.25;;
47764;SDS011;33529;49.242;8.670;2023-04-06T12:56:32;4.07;;;2.95;;
47764;SDS011;33529;49.242;8.670;2023-04-06T12:58:59;4.97;;;2.90;;
47764;SDS011;33529;49.242;8.670;2023-04-06T13:01:26;3.72;;;2.45;;
47764;SDS011;33529;49.242;8.670;2023-04-06T13:03:54;5.55;;;3.80;;
47764;SDS011;33529;49.242;8.670;2023-04-06T13:06:21;5.20;;;2.85;;
47764;SDS011;33529;49.242;8.670;2023-04-06T13:08:48;6.38;;;3.38;;
47764;SDS011;33529;49.242;8.670;2023-04-06T13:11:16;5.57;;;3.17;;
47764;SDS011;33529;49.242;8.670;2023-04-06T13:13:43;5.65;;;3.10;;
47764;SDS011;33529;49.242;8.670;2023-04-06T13:16:10;5.50;;;3.13;;
47764;SDS011;33529;49.242;8.670;2023-04-06T13:18:36;6.35;;;3.55;;
47764;SDS011;33529;49.242;8.670;2023-04-06T13:21:05;5.10;;;3.10;;
47764;SDS011;33529;49.242;8.670;2023-04-06T13:23:33;4.40;;;2.67;;
47764;SDS011;33529;49.242;8.670;2023-04-06T13:26:01;5.65;;;3.28;;
47764;SDS011;33529;49.242;8.670;2023-04-06T13:28:33;5.25;;;3.10;;
47764;SDS011;33529;49.242;8.670;2023-04-06T13:31:06;4.85;;;3.00;;
47764;SDS011;33529;49.242;8.670;2023-04-06T13:33:33;4.07;;;2.58;;
47764;SDS011;33529;49.242;8.670;2023-04-06T13:36:00;4.90;;;2.75;;
47764;SDS011;33529;49.242;8.670;2023-04-06T13:38:27;4.80;;;2.80;;
47764;SDS011;33529;49.242;8.670;2023-04-06T13:40:58;5.63;;;3.58;;
47764;SDS011;33529;49.242;8.670;2023-04-06T13:43:28;6.43;;;3.92;;
47764;SDS011;33529;49.242;8.670;2023-04-06T13:46:15;8.32;;;4.18;;
47764;SDS011;33529;49.242;8.670;2023-04-06T13:48:54;7.28;;;3.33;;
47764;SDS011;33529;49.242;8.670;2023-04-06T13:51:23;5.68;;;3.42;;
47764;SDS011;33529;49.242;8.670;2023-04-06T13:53:58;4.65;;;2.75;;
47764;SDS011;33529;49.242;8.670;2023-04-06T13:56:25;5.35;;;2.83;;
47764;SDS011;33529;49.242;8.670;2023-04-06T13:58:53;4.78;;;2.58;;
47764;SDS011;33529;49.242;8.670;2023-04-06T14:01:22;3.58;;;2.40;;
47764;SDS011;33529;49.242;8.670;2023-04-06T14:03:51;3.90;;;2.33;;
47764;SDS011;33529;49.242;8.670;2023-04-06T14:06:18;5.43;;;2.42;;
47764;SDS011;33529;49.242;8.670;2023-04-06T14:08:57;4.72;;;2.75;;
47764;SDS011;33529;49.242;8.670;2023-04-06T14:11:24;4.50;;;2.30;;
47764;SDS011;33529;49.242;8.670;2023-04-06T14:13:54;4.80;;;2.63;;
47764;SDS011;33529;49.242;8.670;2023-04-06T14:16:23;4.88;;;2.45;;
47764;SDS011;33529;49.242;8.670;2023-04-06T14:18:50;4.68;;;2.40;;
47764;SDS011;33529;49.242;8.670;2023-04-06T14:21:18;4.85;;;2.58;;
47764;SDS011;33529;49.242;8.670;2023-04-06T14:23:45;4.13;;;2.60;;
47764;SDS011;33529;49.242;8.670;2023-04-06T14:26:12;3.85;;;2.53;;
47764;SDS011;33529;49.242;8.670;2023-04-06T14:28:40;5.18;;;2.78;;
47764;SDS011;33529;49.242;8.670;2023-04-06T14:31:11;5.63;;;2.55;;
47764;SDS011;33529;49.242;8.670;2023-04-06T14:33:42;6.35;;;3.05;;
47764;SDS011;33529;49.242;8.670;2023-04-06T14:36:09;5.10;;;3.17;;
47764;SDS011;33529;49.242;8.670;2023-04-06T14:38:37;4.50;;;2.78;;
47764;SDS011;33529;49.242;8.670;2023-04-06T14:41:04;4.40;;;2.40;;
47764;SDS011;33529;49.242;8.670;2023-04-06T14:43:31;4.78;;;2.33;;
47764;SDS011;33529;49.242;8.670;2023-04-06T14:46:01;4.55;;;2.70;;
47764;SDS011;33529;49.242;8.670;2023-04-06T14:48:28;5.40;;;2.60;;
47764;SDS011;33529;49.242;8.670;2023-04-06T14:50:55;5.53;;;2.85;;
47764;SDS011;33529;49.242;8.670;2023-04-06T14:53:23;4.50;;;2.75;;
47764;SDS011;33529;49.242;8.670;2023-04-06T14:55:50;5.53;;;2.60;;
47764;SDS011;33529;49.242;8.670;2023-04-06T14:58:21;5.57;;;2.78;;
47764;SDS011;33529;49.242;8.670;2023-04-06T15:00:49;4.57;;;2.80;;
47764;SDS011;33529;49.242;8.670;2023-04-06T15:03:21;5.45;;;3.67;;
47764;SDS011;33529;49.242;8.670;2023-04-06T15:05:48;5.22;;;3.33;;
47764;SDS011;33529;49.242;8.670;2023-04-06T15:08:15;5.57;;;2.92;;
47764;SDS011;33529;49.242;8.670;2023-04-06T15:10:43;4.70;;;3.00;;
47764;SDS011;33529;49.242;8.670;2023-04-06T15:13:09;6.20;;;2.78;;
47764;SDS011;33529;49.242;8.670;2023-04-06T15:15:36;3.63;;;2.03;;
47764;SDS011;33529;49.242;8.670;2023-04-06T15:18:04;4.07;;;2.10;;